| time (UTC) | temp F | wind direction | speed MPH | gust MPH | rain 1hr in | rain 24hr in | rain mn in | humidity % | barometer mb |
| 20260510033048 | 44 | 360 | 0.0 | 0.0 | 0.00 | 0.45 | 0.45 | 94 | 1011.2 |
| 20260510031536 | 45 | 360 | 0.0 | 1.0 | 0.00 | 0.45 | 0.45 | 94 | 1011.3 |
| 20260510030041 | 45 | 360 | 0.0 | 1.0 | 0.00 | 0.45 | 0.45 | 94 | 1011.2 |
| 20260510024529 | 45 | 360 | 0.0 | 2.0 | 0.00 | 0.45 | 0.45 | 94 | 1011.4 |
| 20260510023028 | 46 | 360 | 0.0 | 1.0 | 0.00 | 0.45 | 0.45 | 94 | 1011.4 |
| 20260510021528 | 46 | 360 | 0.0 | 2.0 | 0.00 | 0.45 | 0.45 | 94 | 1011.1 |
| 20260510020029 | 46 | 360 | 0.0 | 2.0 | 0.00 | 0.45 | 0.45 | 93 | 1011.1 |
| 20260510014534 | 47 | 360 | 0.0 | 1.0 | 0.00 | 0.45 | 0.45 | 93 | 1011.2 |
| 20260510013027 | 48 | 360 | 0.0 | 2.0 | 0.00 | 0.45 | 0.45 | 93 | 1010.9 |
| 20260510011526 | 48 | 360 | 0.0 | 2.0 | 0.00 | 0.45 | 0.45 | 93 | 1011.0 |
| 20260510010028 | 48 | 360 | 1.0 | 2.0 | 0.00 | 0.45 | 0.45 | 92 | 1010.7 |
| 20260510004525 | 49 | 360 | 1.0 | 2.0 | 0.00 | 0.45 | 0.45 | 91 | 1010.7 |
| 20260510003025 | 51 | 360 | 0.0 | 1.0 | 0.00 | 0.45 | 0.45 | 91 | 1010.6 |
| 20260510001524 | 52 | 360 | 0.0 | 2.0 | 0.00 | 0.45 | 0.45 | 90 | 1010.6 |
| 20260510000024 | 53 | 360 | 0.0 | 4.0 | 0.00 | 0.45 | 0.45 | 90 | 1010.7 |
| 20260509234530 | 53 | 360 | 1.0 | 3.0 | 0.01 | 0.45 | 0.45 | 90 | 1010.4 |
| 20260509233022 | 53 | 360 | 0.0 | 4.0 | 0.01 | 0.45 | 0.45 | 90 | 1010.1 |
| 20260509231522 | 54 | 360 | 1.0 | 9.0 | 0.02 | 0.45 | 0.45 | 90 | 1009.7 |
| 20260509230023 | 54 | 360 | 2.0 | 10.0 | 0.02 | 0.45 | 0.45 | 90 | 1010.1 |
| 20260509224520 | 54 | 360 | 2.0 | 10.0 | 0.02 | 0.44 | 0.44 | 91 | 1009.9 |
| 20260509223021 | 54 | 187 | 2.0 | 6.0 | 0.03 | 0.44 | 0.44 | 92 | 1009.8 |
| 20260509221519 | 54 | 360 | 1.0 | 8.0 | 0.02 | 0.43 | 0.43 | 93 | 1009.7 |
| 20260509220014 | 54 | 152 | 2.0 | 5.0 | 0.03 | 0.43 | 0.43 | 94 | 1010.2 |
| 20260509214512 | 53 | 360 | 2.0 | 4.0 | 0.03 | 0.42 | 0.42 | 95 | 1010.4 |
| 20260509213110 | 52 | 360 | 2.0 | 4.0 | 0.02 | 0.41 | 0.41 | 95 | 1010.5 |
| 20260509211508 | 52 | 360 | 0.0 | 3.0 | 0.03 | 0.41 | 0.41 | 95 | 1010.6 |
| 20260509210015 | 52 | 360 | 0.0 | 2.0 | 0.03 | 0.40 | 0.40 | 95 | 1010.6 |
| 20260509204504 | 52 | 360 | 0.0 | 2.0 | 0.03 | 0.39 | 0.39 | 94 | 1010.6 |
| 20260509203003 | 52 | 360 | 1.0 | 3.0 | 0.03 | 0.38 | 0.38 | 94 | 1010.7 |
| 20260509201503 | 52 | 360 | 1.0 | 6.0 | 0.03 | 0.38 | 0.38 | 94 | 1010.7 |
| 20260509200109 | 52 | 360 | 0.0 | 5.0 | 0.03 | 0.37 | 0.37 | 94 | 1010.8 |
| 20260509194553 | 51 | 360 | 2.0 | 9.0 | 0.03 | 0.36 | 0.36 | 94 | 1010.9 |
| 20260509193110 | 51 | 360 | 1.0 | 6.0 | 0.02 | 0.35 | 0.35 | 94 | 1011.1 |
| 20260509191545 | 51 | 360 | 3.0 | 11.0 | 0.03 | 0.35 | 0.35 | 94 | 1011.2 |
| 20260509190041 | 51 | 360 | 4.0 | 9.0 | 0.03 | 0.34 | 0.34 | 94 | 1011.3 |
| 20260509184542 | 51 | 360 | 3.0 | 8.0 | 0.03 | 0.33 | 0.33 | 94 | 1011.5 |
| 20260509183035 | 51 | 360 | 2.0 | 10.0 | 0.04 | 0.33 | 0.33 | 94 | 1011.5 |
| 20260509181528 | 51 | 360 | 3.0 | 9.0 | 0.04 | 0.32 | 0.32 | 94 | 1011.4 |
| 20260509180025 | 51 | 360 | 2.0 | 8.0 | 0.04 | 0.31 | 0.31 | 94 | 1011.4 |
| 20260509174519 | 51 | 360 | 3.0 | 10.0 | 0.03 | 0.31 | 0.30 | 95 | 1011.4 |
| 20260509173020 | 51 | 360 | 3.0 | 10.0 | 0.03 | 0.30 | 0.28 | 95 | 1011.3 |
| 20260509171527 | 51 | 360 | 5.0 | 10.0 | 0.03 | 0.28 | 0.28 | 95 | 1011.3 |
| 20260509170016 | 51 | 360 | 3.0 | 10.0 | 0.03 | 0.28 | 0.27 | 95 | 1011.2 |
| 20260509164515 | 51 | 360 | 3.0 | 6.0 | 0.03 | 0.32 | 0.27 | 95 | 1011.3 |
| 20260509163013 | 50 | 360 | 3.0 | 9.0 | 0.03 | 0.31 | 0.26 | 95 | 1011.5 |
| 20260509161512 | 50 | 360 | 3.0 | 5.0 | 0.03 | 0.30 | 0.25 | 95 | 1011.5 |
| 20260509160017 | 51 | 360 | 1.0 | 3.0 | 0.03 | 0.28 | 0.24 | 96 | 1011.7 |
| 20260509154511 | 50 | 360 | 1.0 | 3.0 | 0.03 | 0.28 | 0.24 | 96 | 1012.0 |
| 20260509153009 | 50 | 360 | 1.0 | 3.0 | 0.03 | 0.28 | 0.23 | 96 | 1012.1 |
| 20260509151504 | 50 | 360 | 0.0 | 1.0 | 0.02 | 0.27 | 0.22 | 96 | 1012.3 |
| 20260509150001 | 50 | 360 | 0.0 | 2.0 | 0.02 | 0.26 | 0.21 | 96 | 1012.2 |
| 20260509144709 | 50 | 360 | 0.0 | 1.0 | 0.02 | 0.26 | 0.21 | 96 | 1012.5 |
| 20260509143100 | 50 | 360 | 0.0 | 1.0 | 0.02 | 0.25 | 0.20 | 96 | 1012.6 |
| 20260509141559 | 49 | 360 | 0.0 | 1.0 | 0.02 | 0.25 | 0.20 | 96 | 1012.5 |
| 20260509140100 | 49 | 360 | 0.0 | 1.0 | 0.02 | 0.24 | 0.19 | 96 | 1012.5 |
| 20260509134556 | 49 | 360 | 0.0 | 1.0 | 0.02 | 0.24 | 0.19 | 96 | 1012.3 |
| 20260509133054 | 49 | 360 | 0.0 | 1.0 | 0.02 | 0.23 | 0.18 | 96 | 1012.3 |
| 20260509131553 | 49 | 360 | 0.0 | 2.0 | 0.02 | 0.23 | 0.18 | 96 | 1012.0 |
| 20260509124605 | 49 | 360 | 1.0 | 2.0 | 0.02 | 0.22 | 0.17 | 96 | 1012.2 |
| 20260509123048 | 49 | 360 | 1.0 | 2.0 | 0.01 | 0.21 | 0.16 | 95 | 1012.4 |
| 20260509121547 | 48 | 360 | 0.0 | 0.0 | 0.01 | 0.21 | 0.16 | 96 | 1012.2 |
| 20260509120045 | 48 | 360 | 0.0 | 1.0 | 0.00 | 0.20 | 0.15 | 96 | 1012.3 |
| 20260509114542 | 48 | 360 | 0.0 | 1.0 | 0.00 | 0.20 | 0.15 | 96 | 1012.3 |
| 20260509113041 | 47 | 360 | 0.0 | 1.0 | 0.00 | 0.20 | 0.15 | 96 | 1012.3 |
| 20260509111538 | 47 | 360 | 0.0 | 1.0 | 0.01 | 0.20 | 0.15 | 95 | 1012.8 |
| 20260509110038 | 47 | 360 | 0.0 | 1.0 | 0.02 | 0.20 | 0.15 | 95 | 1012.8 |
| 20260509104538 | 47 | 360 | 0.0 | 1.0 | 0.03 | 0.20 | 0.15 | 95 | 1012.7 |
| 20260509103035 | 47 | 360 | 0.0 | 2.0 | 0.02 | 0.19 | 0.14 | 95 | 1012.5 |
| 20260509101534 | 46 | 360 | 0.0 | 1.0 | 0.03 | 0.19 | 0.14 | 95 | 1012.6 |
| 20260509100047 | 46 | 360 | 0.0 | 1.0 | 0.02 | 0.18 | 0.13 | 95 | 1013.0 |
| 20260509094535 | 46 | 360 | 0.0 | 1.0 | 0.02 | 0.17 | 0.12 | 95 | 1012.9 |
| 20260509093034 | 46 | 360 | 0.0 | 2.0 | 0.03 | 0.17 | 0.12 | 94 | 1012.8 |
| 20260509091530 | 46 | 360 | 0.0 | 2.0 | 0.03 | 0.16 | 0.11 | 94 | 1012.9 |
| 20260509090029 | 46 | 360 | 0.0 | 2.0 | 0.04 | 0.16 | 0.11 | 94 | 1012.9 |
| 20260509084531 | 46 | 360 | 0.0 | 1.0 | 0.04 | 0.15 | 0.10 | 95 | 1013.1 |
| 20260509083025 | 46 | 360 | 0.0 | 1.0 | 0.04 | 0.14 | 0.09 | 94 | 1013.5 |
| 20260509081539 | 46 | 360 | 0.0 | 2.0 | 0.04 | 0.13 | 0.08 | 94 | 1013.2 |
| 20260509080023 | 46 | 360 | 0.0 | 1.0 | 0.04 | 0.12 | 0.07 | 94 | 1013.3 |
| 20260509074522 | 46 | 360 | 0.0 | 1.0 | 0.04 | 0.11 | 0.06 | 94 | 1013.3 |
| 20260509073020 | 46 | 360 | 0.0 | 0.0 | 0.04 | 0.10 | 0.05 | 94 | 1013.6 |
| 20260509071520 | 46 | 360 | 0.0 | 1.0 | 0.03 | 0.09 | 0.04 | 94 | 1013.8 |
| 20260509070019 | 46 | 360 | 0.0 | 2.0 | 0.03 | 0.08 | 0.03 | 94 | 1013.7 |
| 20260509064518 | 45 | 360 | 0.0 | 1.0 | 0.02 | 0.08 | 0.02 | 94 | 1013.8 |
| 20260509063017 | 45 | 360 | 0.0 | 1.0 | 0.01 | 0.07 | 0.01 | 94 | 1014.3 |
| 20260509061515 | 45 | 360 | 0.0 | 1.0 | 0.01 | 0.07 | 0.01 | 93 | 1014.2 |
| 20260509060015 | 45 | 360 | 0.0 | 1.0 | 0.00 | 0.06 | 0.00 | 93 | 1014.3 |
| 20260509054521 | 45 | 360 | 1.0 | 2.0 | 0.00 | 0.09 | 0.00 | 93 | 1014.0 |
| 20260509053013 | 45 | 360 | 0.0 | 1.0 | 0.00 | 0.09 | 0.00 | 93 | 1013.6 |
| 20260509051515 | 44 | 360 | 0.0 | 1.0 | 0.00 | 0.09 | 0.00 | 93 | 1013.8 |
| 20260509050012 | 44 | 360 | 0.0 | 2.0 | 0.00 | 0.09 | 0.00 | 92 | 1013.9 |
| 20260509044513 | 44 | 360 | 0.0 | 1.0 | 0.00 | 0.15 | 0.00 | 93 | 1013.8 |
| 20260509043008 | 43 | 360 | 0.0 | 1.0 | 0.00 | 0.15 | 0.00 | 92 | 1014.0 |
| 20260509041503 | 43 | 360 | 0.0 | 1.0 | 0.00 | 0.15 | 0.00 | 92 | 1014.1 |
| 20260509040100 | 43 | 360 | 0.0 | 1.0 | 0.00 | 0.15 | 0.00 | 92 | 1014.3 |
| 20260509034605 | 43 | 360 | 0.0 | 2.0 | 0.00 | 0.17 | 0.15 | 91 | 1014.2 |